Time;durP1;ratioP1;P1;durP2;ratioP2;P2;SDS_P1;SDS_P2;PMS_P1;PMS_P2;Temp;Humidity;BMP_temperature;BMP_pressure;BME280_temperature;BME280_humidity;BME280_pressure;Samples;Min_cycle;Max_cycle;Signal;HPM_P1;HPM_P2
2022/07/28 00:00:37;;;;;;;3.78;1.20;;;;;;;16.41;91.05;102011.34;5067003;28;20052;-60
2022/07/28 00:03:03;;;;;;;2.30;0.90;;;;;;;16.44;91.19;102002.25;5079353;28;20048;-59
2022/07/28 00:05:30;;;;;;;3.67;1.05;;;;;;;16.39;91.62;101997.44;5072013;28;20393;-60
2022/07/28 00:07:56;;;;;;;4.85;1.10;;;;;;;16.45;90.81;101996.81;5077569;28;20044;-59
2022/07/28 00:10:23;;;;;;;2.50;1.10;;;;;;;16.43;91.06;102005.91;5080816;28;20054;-60
2022/07/28 00:12:49;;;;;;;4.15;1.30;;;;;;;16.47;89.43;102010.72;5075189;28;20522;-60
2022/07/28 00:15:16;;;;;;;3.47;1.05;;;;;;;16.43;90.28;102008.56;5062503;28;20052;-60
2022/07/28 00:17:42;;;;;;;4.50;1.10;;;;;;;16.36;91.14;102003.03;5066410;28;20538;-58
2022/07/28 00:20:09;;;;;;;4.22;1.02;;;;;;;16.33;90.93;102006.00;5066930;28;20485;-60
2022/07/28 00:22:43;;;;;;;2.45;0.90;;;;;;;16.38;90.17;102009.84;5070162;28;20048;-60
2022/07/28 00:25:10;;;;;;;4.10;1.30;;;;;;;16.33;90.93;102012.13;5075299;28;20404;-60
2022/07/28 00:27:37;;;;;;;2.47;1.08;;;;;;;16.30;91.44;102007.13;5078105;28;20051;-59
2022/07/28 00:30:08;;;;;;;3.35;0.80;;;;;;;16.24;92.14;102002.47;5078292;28;20401;-59
2022/07/28 00:32:36;;;;;;;3.10;1.20;;;;;;;16.20;92.02;102003.75;5067719;28;20137;-60
2022/07/28 00:35:03;;;;;;;4.55;1.27;;;;;;;16.16;92.13;102011.19;5086050;28;20129;-60
2022/07/28 00:37:33;;;;;;;3.13;1.00;;;;;;;16.14;92.00;102013.16;5084399;28;20127;-60
2022/07/28 00:40:00;;;;;;;5.13;1.38;;;;;;;16.11;92.60;102005.53;5077013;28;20142;-60
2022/07/28 00:42:26;;;;;;;3.83;1.10;;;;;;;16.12;92.55;102004.53;5080562;28;20086;-60
2022/07/28 00:44:53;;;;;;;5.60;1.33;;;;;;;16.06;93.60;101994.56;5078210;28;20054;-59
2022/07/28 00:47:19;;;;;;;2.85;0.98;;;;;;;16.05;95.71;102003.47;5091442;28;20062;-59
2022/07/28 00:49:47;;;;;;;3.47;1.17;;;;;;;16.01;94.57;101995.03;5060087;28;20051;-60
2022/07/28 00:52:16;;;;;;;2.63;1.13;;;;;;;16.02;94.86;102004.63;5076626;28;20063;-60
2022/07/28 00:54:43;;;;;;;4.38;0.98;;;;;;;15.98;95.69;101989.22;5080936;28;20055;-60
2022/07/28 00:57:09;;;;;;;2.72;1.20;;;;;;;16.00;95.37;101993.34;5066073;28;20055;-60
2022/07/28 00:59:36;;;;;;;4.70;1.60;;;;;;;15.99;96.05;101998.81;5067566;28;20055;-60
2022/07/28 01:02:03;;;;;;;5.20;1.10;;;;;;;15.97;96.80;101993.66;5075286;28;20493;-60
2022/07/28 01:04:30;;;;;;;5.03;1.25;;;;;;;15.92;97.85;101987.19;5081554;28;20547;-61
2022/07/28 01:07:13;;;;;;;5.22;1.65;;;;;;;15.93;98.46;101991.47;5072162;28;20056;-61
2022/07/28 01:09:59;;;;;;;4.10;1.38;;;;;;;15.93;98.30;101986.19;5090802;28;20131;-60
2022/07/28 01:12:31;;;;;;;3.63;1.30;;;;;;;15.94;98.12;101990.50;5071472;28;20221;-59
2022/07/28 01:15:17;;;;;;;3.17;1.20;;;;;;;15.84;99.87;101995.88;5066038;28;20044;-58
2022/07/28 01:18:09;;;;;;;1.92;1.17;;;;;;;15.81;100.00;101985.59;5078412;28;20048;-58
2022/07/28 01:20:52;;;;;;;4.68;1.25;;;;;;;15.76;100.00;101982.59;5088796;28;20050;-60
2022/07/28 01:23:30;;;;;;;2.35;1.00;;;;;;;15.71;100.00;101982.16;5084819;28;20059;-59
2022/07/28 01:26:12;;;;;;;;;;;;;;;15.72;100.00;101982.03;5072910;28;20526;-59
2022/07/28 01:29:02;;;;;;;3.13;1.77;;;;;;;15.65;100.00;101986.25;5064213;28;19931;-59
2022/07/28 01:31:55;;;;;;;6.15;1.30;;;;;;;15.58;100.00;101986.03;5067109;28;20052;-59
2022/07/28 01:35:20;;;;;;;4.15;1.30;;;;;;;15.52;100.00;101989.25;5083942;28;20477;-59
2022/07/28 01:37:53;;;;;;;5.90;1.27;;;;;;;15.45;100.00;101985.56;5064893;28;20071;-59
2022/07/28 01:40:24;;;;;;;5.13;1.70;;;;;;;15.41;100.00;101978.94;5076606;28;21169;-59
2022/07/28 01:42:55;;;;;;;6.70;1.33;;;;;;;15.36;100.00;101981.16;5070416;28;20481;-60
2022/07/28 01:45:23;;;;;;;5.88;1.33;;;;;;;15.35;100.00;101982.16;5081226;28;20153;-60
2022/07/28 01:47:51;;;;;;;;;;;;;;;15.35;100.00;101979.53;5070795;28;20048;-60
2022/07/28 01:50:20;;;;;;;2.47;1.10;;;;;;;15.33;100.00;101968.28;5081620;28;20541;-60
2022/07/28 01:52:48;;;;;;;4.72;1.33;;;;;;;15.32;100.00;101971.88;5068357;28;20044;-59
2022/07/28 01:55:19;;;;;;;4.20;1.45;;;;;;;15.28;100.00;101962.59;5069206;28;20489;-59
2022/07/28 01:57:47;;;;;;;5.47;1.50;;;;;;;15.18;100.00;101958.19;5074944;28;20051;-60
2022/07/28 02:00:14;;;;;;;;;;;;;;;15.14;100.00;101953.34;5063717;28;20052;-59
2022/07/28 02:02:44;;;;;;;3.95;1.20;;;;;;;15.09;100.00;101960.88;5071806;28;19928;-59
2022/07/28 02:05:13;;;;;;;7.45;1.40;;;;;;;15.00;100.00;101959.97;5065892;28;20044;-60
2022/07/28 02:07:43;;;;;;;4.75;1.30;;;;;;;14.98;100.00;101951.38;5076997;28;20044;-59
2022/07/28 02:10:13;;;;;;;3.53;1.30;;;;;;;14.96;100.00;101963.91;5069340;28;20052;-60
2022/07/28 02:12:42;;;;;;;7.65;1.40;;;;;;;14.90;100.00;101959.22;5077251;28;20055;-59
2022/07/28 02:15:10;;;;;;;6.80;1.40;;;;;;;14.82;100.00;101958.13;5074848;28;20060;-60
2022/07/28 02:17:41;;;;;;;3.28;1.17;;;;;;;14.77;100.00;101952.44;5085335;28;20055;-59
2022/07/28 02:20:09;;;;;;;4.78;1.38;;;;;;;14.74;100.00;101951.88;5073612;28;20055;-60
2022/07/28 02:22:36;;;;;;;;;;;;;;;14.73;100.00;101960.81;5058861;28;20054;-60
2022/07/28 02:25:04;;;;;;;4.50;1.40;;;;;;;14.69;100.00;101949.69;5082332;28;19928;-60
2022/07/28 02:27:47;;;;;;;8.27;1.33;;;;;;;14.68;100.00;101958.63;5075062;28;20048;-59
2022/07/28 02:30:16;;;;;;;6.03;1.60;;;;;;;14.61;100.00;101966.25;5078032;28;20045;-58
2022/07/28 02:33:11;;;;;;;5.80;1.55;;;;;;;14.58;100.00;101958.66;5072136;28;20051;-59
2022/07/28 02:35:56;;;;;;;3.00;1.20;;;;;;;14.55;100.00;101958.06;5079776;28;20334;-60
2022/07/28 02:38:38;;;;;;;6.68;1.58;;;;;;;14.51;100.00;101957.53;5067492;28;20052;-59
2022/07/28 02:41:13;;;;;;;4.13;1.33;;;;;;;14.49;100.00;101954.19;5087046;28;20058;-59
2022/07/28 02:43:43;;;;;;;6.05;1.70;;;;;;;14.46;100.00;101951.84;5080172;28;20136;-59
2022/07/28 02:46:20;;;;;;;3.83;1.35;;;;;;;14.47;100.00;101944.78;5095125;28;20047;-59
2022/07/28 02:48:51;;;;;;;3.17;1.70;;;;;;;14.44;100.00;101944.09;5082925;28;20055;-59
2022/07/28 02:51:22;;;;;;;6.78;1.50;;;;;;;14.46;100.00;101943.09;5060506;28;20063;-59
2022/07/28 02:53:49;;;;;;;3.05;1.33;;;;;;;14.40;100.00;101947.13;5074582;28;20413;-59
2022/07/28 02:56:16;;;;;;;3.83;1.52;;;;;;;14.38;100.00;101942.00;5070293;28;20060;-59
2022/07/28 02:58:44;;;;;;;5.60;1.80;;;;;;;14.42;100.00;101945.19;5082356;28;20507;-59
2022/07/28 03:01:11;;;;;;;3.17;1.50;;;;;;;14.42;100.00;101943.38;5075052;28;20048;-58
2022/07/28 03:03:38;;;;;;;3.35;1.77;;;;;;;14.37;100.00;101944.81;5070917;28;20048;-59
2022/07/28 03:06:09;;;;;;;4.07;1.33;;;;;;;14.33;100.00;101943.41;5076085;28;20045;-59
2022/07/28 03:08:36;;;;;;;7.75;1.73;;;;;;;14.33;100.00;101943.41;5068120;28;20450;-59
2022/07/28 03:11:10;;;;;;;3.45;1.42;;;;;;;14.38;100.00;101943.81;5086187;28;20040;-59
2022/07/28 03:13:39;;;;;;;5.57;1.60;;;;;;;14.41;100.00;101931.16;5076146;28;20048;-59
2022/07/28 03:16:08;;;;;;;3.35;1.50;;;;;;;14.41;100.00;101928.53;5087668;28;20116;-59
2022/07/28 03:18:35;;;;;;;4.78;1.50;;;;;;;14.37;100.00;101931.59;5067413;28;20055;-59
2022/07/28 03:21:01;;;;;;;7.35;1.73;;;;;;;14.43;100.00;101938.94;5076718;28;20063;-59
2022/07/28 03:23:33;;;;;;;5.05;1.52;;;;;;;14.46;100.00;101945.72;5069638;28;20469;-58
2022/07/28 03:26:05;;;;;;;5.07;1.67;;;;;;;14.47;100.00;101944.78;5061517;28;20067;-59
2022/07/28 03:28:33;;;;;;;4.72;1.40;;;;;;;14.47;100.00;101942.13;5069074;28;20048;-59
2022/07/28 03:31:02;;;;;;;3.67;1.58;;;;;;;14.48;100.00;101954.34;5060385;28;20561;-58
2022/07/28 03:33:29;;;;;;;7.18;1.80;;;;;;;14.43;100.00;101952.97;5081085;28;20435;-59
2022/07/28 03:36:05;;;;;;;3.50;1.60;;;;;;;14.41;100.00;101960.19;5067721;28;20051;-59
2022/07/28 03:38:39;;;;;;;6.20;1.90;;;;;;;14.34;100.00;101966.19;5085063;28;20131;-59
2022/07/28 03:41:08;;;;;;;3.53;1.42;;;;;;;14.30;100.00;101959.53;5076326;28;20048;-59
2022/07/28 03:43:34;;;;;;;;;;;;;;;14.31;100.00;101966.47;5087457;28;20508;-59
2022/07/28 03:46:01;;;;;;;3.55;1.45;;;;;;;14.25;100.00;101965.25;5082680;28;20310;-59
2022/07/28 03:48:29;;;;;;;5.85;1.65;;;;;;;14.22;100.00;101970.81;5065073;28;20463;-59
2022/07/28 03:50:57;;;;;;;2.70;1.53;;;;;;;14.14;100.00;101968.88;5075320;28;20051;-59
2022/07/28 03:53:25;;;;;;;7.07;1.75;;;;;;;14.08;100.00;101968.63;5058985;28;20064;-59
2022/07/28 03:55:52;;;;;;;;;;;;;;;14.13;100.00;101971.66;5076532;28;20484;-59
2022/07/28 03:58:24;;;;;;;3.58;1.50;;;;;;;14.11;100.00;101973.59;5063189;28;20022;-59
2022/07/28 04:00:54;;;;;;;6.70;1.90;;;;;;;14.11;100.00;101971.78;5082855;28;20048;-59
2022/07/28 04:03:20;;;;;;;10.25;2.08;;;;;;;14.11;100.00;101970.94;5085660;28;20044;-59
2022/07/28 04:06:07;;;;;;;4.40;1.60;;;;;;;14.05;100.00;101972.34;5060323;28;20295;-58
2022/07/28 04:08:33;;;;;;;3.38;1.60;;;;;;;14.07;100.00;101972.22;5064955;28;20059;-59
2022/07/28 04:11:00;;;;;;;6.22;2.22;;;;;;;14.08;100.00;101976.53;5068824;28;20047;-58
2022/07/28 04:13:26;;;;;;;6.75;2.80;;;;;;;14.08;100.00;101971.25;5085659;28;20044;-59
2022/07/28 04:15:53;;;;;;;6.90;2.63;;;;;;;14.15;100.00;101982.88;5069554;28;20048;-59
2022/07/28 04:18:19;;;;;;;8.55;2.80;;;;;;;14.17;100.00;101975.66;5075667;28;20049;-58
2022/07/28 04:20:46;;;;;;;5.28;2.03;;;;;;;14.23;100.00;101973.31;5065306;28;20044;-59
2022/07/28 04:23:12;;;;;;;4.70;2.13;;;;;;;14.26;100.00;101969.53;5062011;28;20058;-59
2022/07/28 04:25:39;;;;;;;4.60;2.15;;;;;;;14.27;100.00;101971.22;5082737;28;20044;-59
2022/07/28 04:28:05;;;;;;;6.78;1.90;;;;;;;14.29;100.00;101971.06;5074350;28;20135;-59
2022/07/28 04:30:32;;;;;;;6.22;1.77;;;;;;;14.26;100.00;101966.06;5081427;28;20485;-60
2022/07/28 04:32:58;;;;;;;9.20;1.92;;;;;;;14.22;100.00;101961.06;5064040;28;20059;-59
2022/07/28 04:35:26;;;;;;;5.43;2.05;;;;;;;14.27;100.00;101957.16;5079656;28;20050;-58
2022/07/28 04:37:57;;;;;;;5.57;1.65;;;;;;;14.29;100.00;101966.63;5072094;28;20052;-58
2022/07/28 04:40:25;;;;;;;5.25;1.88;;;;;;;14.29;100.00;101961.34;5072424;28;20098;-59
2022/07/28 04:42:52;;;;;;;7.75;2.58;;;;;;;14.29;100.00;101964.00;5077744;28;20044;-59
2022/07/28 04:45:19;;;;;;;9.65;1.50;;;;;;;14.29;100.00;101957.84;5084406;28;20066;-56
2022/07/28 04:47:46;;;;;;;5.95;1.85;;;;;;;14.29;100.00;101960.50;5072890;28;20154;-60
2022/07/28 04:50:17;;;;;;;4.22;1.92;;;;;;;14.32;100.00;101961.03;5069058;28;20059;-57
2022/07/28 04:52:48;;;;;;;5.70;1.65;;;;;;;14.37;100.00;101960.63;5080178;28;20117;-59
2022/07/28 04:55:15;;;;;;;6.15;1.65;;;;;;;14.35;100.00;101958.13;5077111;28;20044;-58
2022/07/28 04:57:42;;;;;;;6.25;1.70;;;;;;;14.36;100.00;101957.13;5077286;28;20050;-58
2022/07/28 05:00:12;;;;;;;9.48;2.40;;;;;;;14.40;100.00;101957.69;5077929;28;20410;-58
2022/07/28 05:02:39;;;;;;;5.03;1.90;;;;;;;14.39;100.00;101959.50;5075386;28;20051;-59
2022/07/28 05:05:07;;;;;;;4.07;1.63;;;;;;;14.42;100.00;101959.22;5082932;28;20059;-58
2022/07/28 05:07:33;;;;;;;6.07;1.75;;;;;;;14.44;100.00;101964.34;5083672;28;20074;-59
2022/07/28 05:09:59;;;;;;;6.47;1.60;;;;;;;14.50;100.00;101961.13;5076621;28;20052;-59
2022/07/28 05:12:26;;;;;;;4.43;1.48;;;;;;;14.60;100.00;101958.47;5062644;28;20041;-59
2022/07/28 05:14:52;;;;;;;5.38;1.42;;;;;;;14.63;100.00;101964.31;5071472;28;20095;-58
2022/07/28 05:17:19;;;;;;;2.92;1.48;;;;;;;14.68;100.00;101963.03;5085254;28;20056;-59
2022/07/28 05:19:45;;;;;;;7.82;1.67;;;;;;;14.72;100.00;101962.63;5071670;28;20044;-59
2022/07/28 05:22:12;;;;;;;6.45;1.70;;;;;;;14.75;100.00;101962.31;5079755;28;20056;-59
2022/07/28 05:24:38;;;;;;;5.75;1.80;;;;;;;14.87;100.00;101956.84;5074657;28;20062;-58
2022/07/28 05:27:04;;;;;;;4.22;1.35;;;;;;;14.89;100.00;101958.34;5084179;28;21690;-59
2022/07/28 05:29:33;;;;;;;4.22;1.60;;;;;;;14.97;100.00;101962.91;5081683;28;20135;-59
2022/07/28 05:32:12;;;;;;;4.30;1.60;;;;;;;14.95;100.00;101959.59;5068875;28;20059;-59
2022/07/28 05:34:45;;;;;;;5.53;1.98;;;;;;;15.07;100.00;101963.66;5089534;28;20131;-58
2022/07/28 05:37:12;;;;;;;5.85;1.95;;;;;;;15.09;100.00;101960.88;5062959;28;20060;-58
2022/07/28 05:39:38;;;;;;;6.18;2.00;;;;;;;15.12;100.00;101965.91;5075520;28;20662;-59
2022/07/28 05:42:05;;;;;;;5.55;1.77;;;;;;;15.06;100.00;101955.91;5058796;28;20053;-58
2022/07/28 05:44:31;;;;;;;8.55;2.10;;;;;;;15.09;100.00;101959.06;5080842;28;20288;-59
2022/07/28 05:47:04;;;;;;;5.32;2.00;;;;;;;15.13;100.00;101959.63;5074880;28;20090;-59
2022/07/28 05:49:31;;;;;;;8.18;1.95;;;;;;;15.16;100.00;101961.97;5080828;28;20052;-61
2022/07/28 05:51:57;;;;;;;5.50;1.90;;;;;;;15.15;100.00;101958.50;5075744;28;20552;-59
2022/07/28 05:54:23;;;;;;;4.50;1.52;;;;;;;15.23;100.00;101961.22;5057219;28;20058;-59
2022/07/28 05:56:51;;;;;;;4.07;1.52;;;;;;;15.29;100.00;101973.03;5098861;28;20066;-59
2022/07/28 05:59:17;;;;;;;7.75;1.95;;;;;;;15.22;100.00;101971.94;5094903;28;20055;-58
2022/07/28 06:01:44;;;;;;;5.20;1.55;;;;;;;15.27;100.00;101972.34;5095720;28;20065;-59
2022/07/28 06:04:11;;;;;;;6.57;1.90;;;;;;;15.34;100.00;101969.91;5092203;28;20063;-59
2022/07/28 06:06:54;;;;;;;8.35;2.05;;;;;;;15.34;100.00;101968.09;5101353;28;20039;-59
2022/07/28 06:09:21;;;;;;;10.48;1.98;;;;;;;15.36;100.00;101983.81;5094832;28;20052;-59
2022/07/28 06:11:49;;;;;;;6.20;1.40;;;;;;;15.39;100.00;101971.13;5096871;28;20089;-59
2022/07/28 06:14:15;;;;;;;5.05;1.50;;;;;;;15.40;100.00;101975.44;5106971;28;20118;-59
2022/07/28 06:16:43;;;;;;;5.80;1.80;;;;;;;15.42;100.00;101970.81;5086214;28;20048;-60
2022/07/28 06:19:10;;;;;;;7.15;1.63;;;;;;;15.40;100.00;101972.78;5094766;28;20052;-60
2022/07/28 06:21:36;;;;;;;4.22;1.30;;;;;;;15.49;100.00;101972.88;5085319;28;20488;-59
2022/07/28 06:24:03;;;;;;;3.53;1.30;;;;;;;15.56;100.00;101984.50;5112195;27;20078;-59
2022/07/28 06:26:30;;;;;;;7.55;1.40;;;;;;;15.56;100.00;101982.72;5117633;27;20614;-59
2022/07/28 06:28:56;;;;;;;6.32;1.88;;;;;;;15.62;100.00;101975.97;5119744;27;20050;-59
2022/07/28 06:31:23;;;;;;;6.55;1.58;;;;;;;15.66;100.00;101973.84;5124526;27;20039;-58
2022/07/28 06:33:49;;;;;;;4.40;1.60;;;;;;;15.72;100.00;101974.09;5113578;27;20452;-59
2022/07/28 06:36:16;;;;;;;7.00;1.90;;;;;;;15.79;100.00;101979.63;5115123;27;20134;-59
2022/07/28 06:38:42;;;;;;;6.10;1.63;;;;;;;15.86;100.00;101980.69;5112051;27;20048;-59
2022/07/28 06:41:09;;;;;;;3.38;1.08;;;;;;;16.05;100.00;101977.00;5112058;27;20150;-59
2022/07/28 06:43:35;;;;;;;4.22;1.40;;;;;;;16.16;100.00;101973.28;5113519;27;20040;-59
2022/07/28 06:46:05;;;;;;;4.47;1.20;;;;;;;16.29;100.00;101972.88;5114468;27;20610;-59
2022/07/28 06:48:32;;;;;;;3.08;1.30;;;;;;;16.40;99.94;101978.72;5122580;27;20048;-59
2022/07/28 06:50:59;;;;;;;8.00;1.52;;;;;;;16.50;98.99;101973.31;5106561;27;20090;-59
2022/07/28 06:53:26;;;;;;;4.20;1.20;;;;;;;16.65;98.19;101981.53;5107899;27;20043;-58
2022/07/28 06:55:59;;;;;;;4.32;1.35;;;;;;;16.69;98.33;101974.91;5119137;27;20099;-58
2022/07/28 06:58:25;;;;;;;5.22;1.30;;;;;;;16.75;96.55;101971.63;5122561;27;20099;-59
2022/07/28 07:00:52;;;;;;;3.55;1.20;;;;;;;16.88;96.85;101971.22;5109340;28;20051;-59
2022/07/28 07:03:18;;;;;;;9.75;1.30;;;;;;;17.02;93.77;101972.44;5115047;27;20051;-59
2022/07/28 07:05:44;;;;;;;5.25;1.05;;;;;;;17.09;92.08;101967.31;5115667;27;20044;-59
2022/07/28 07:08:15;;;;;;;3.97;1.10;;;;;;;17.20;91.07;101967.84;5100969;27;20051;-59
2022/07/28 07:10:41;;;;;;;5.53;1.13;;;;;;;17.33;91.78;101966.56;5121973;27;20131;-59
2022/07/28 07:13:08;;;;;;;5.03;1.15;;;;;;;17.35;88.92;101965.38;5110156;27;20039;-59
2022/07/28 07:15:39;;;;;;;4.18;1.17;;;;;;;17.47;89.08;101960.59;5116908;27;20492;-58
2022/07/28 07:18:05;;;;;;;6.45;1.02;;;;;;;17.59;89.04;101963.75;5105563;27;20047;-59
2022/07/28 07:20:32;;;;;;;5.18;1.10;;;;;;;17.70;88.95;101959.94;5101204;27;20051;-59
2022/07/28 07:22:58;;;;;;;3.55;1.00;;;;;;;17.82;88.08;101960.44;5115134;27;20051;-59
2022/07/28 07:25:24;;;;;;;5.57;1.20;;;;;;;17.92;88.55;101961.97;5112136;27;20054;-59
2022/07/28 07:27:51;;;;;;;3.13;1.17;;;;;;;18.02;87.68;101955.66;5124680;27;20046;-60
2022/07/28 07:30:17;;;;;;;2.72;1.00;;;;;;;18.14;87.95;101957.78;5111218;27;20046;-59
2022/07/28 07:32:44;;;;;;;3.03;0.88;;;;;;;18.26;87.45;101955.59;5119737;27;20051;-58
2022/07/28 07:35:11;;;;;;;3.35;1.08;;;;;;;18.34;85.22;101952.09;5110070;27;20051;-59
2022/07/28 07:37:37;;;;;;;3.45;1.02;;;;;;;18.49;84.55;101950.41;5115057;27;20043;-59
2022/07/28 07:40:06;;;;;;;3.00;0.80;;;;;;;18.59;82.21;101950.19;5113928;27;20058;-58
2022/07/28 07:42:33;;;;;;;4.38;1.25;;;;;;;18.64;80.49;101941.69;5104659;27;20054;-59
2022/07/28 07:44:59;;;;;;;2.00;0.85;;;;;;;18.64;77.32;101941.69;5128457;27;20074;-59
2022/07/28 07:47:26;;;;;;;2.63;0.90;;;;;;;18.70;75.56;101948.97;5115206;27;20058;-59
2022/07/28 07:49:52;;;;;;;3.28;0.90;;;;;;;18.70;74.73;101935.69;5121236;27;20043;-59
2022/07/28 07:52:19;;;;;;;3.13;1.17;;;;;;;18.78;76.67;101946.31;5110769;27;20055;-61
2022/07/28 07:54:45;;;;;;;2.85;1.10;;;;;;;18.82;77.14;101934.34;5112518;27;20418;-59
2022/07/28 07:57:12;;;;;;;2.65;0.90;;;;;;;18.86;78.13;101935.66;5124010;27;20062;-58
2022/07/28 07:59:39;;;;;;;3.88;1.00;;;;;;;18.96;76.40;101938.91;5110431;27;20047;-59
2022/07/28 08:02:05;;;;;;;4.25;1.08;;;;;;;19.01;77.31;101937.56;5120907;27;20491;-59
2022/07/28 08:04:31;;;;;;;2.80;0.90;;;;;;;19.02;74.74;101942.72;5120450;27;20050;-59
2022/07/28 08:07:03;;;;;;;8.85;0.88;;;;;;;18.94;73.41;101927.63;5113501;27;20502;-59
2022/07/28 08:09:29;;;;;;;2.67;0.77;;;;;;;18.89;69.57;101931.81;5108358;27;20078;-59
2022/07/28 08:11:56;;;;;;;6.22;1.02;;;;;;;19.00;73.50;101938.59;5104449;27;20052;-58
2022/07/28 08:14:22;;;;;;;1.52;0.80;;;;;;;18.98;71.47;101938.75;5121040;27;20051;-59
2022/07/28 08:16:48;;;;;;;2.92;0.98;;;;;;;19.01;72.75;101934.91;5104069;27;20061;-58
2022/07/28 08:19:15;;;;;;;4.47;0.70;;;;;;;19.02;72.72;101929.44;5120993;27;20071;-59
2022/07/28 08:21:47;;;;;;;3.30;0.93;;;;;;;19.05;72.42;101934.41;5106127;28;20086;-58
2022/07/28 08:24:14;;;;;;;4.78;1.15;;;;;;;19.00;70.03;101930.63;5113058;28;20559;-59
2022/07/28 08:27:03;;;;;;;1.67;0.70;;;;;;;19.02;71.84;101929.44;5102345;27;20073;-59
2022/07/28 08:29:29;;;;;;;4.18;0.85;;;;;;;19.11;72.64;101924.88;5108643;28;20392;-60
2022/07/28 08:31:56;;;;;;;3.38;0.70;;;;;;;19.17;70.83;101927.66;5117007;27;20507;-60
2022/07/28 08:34:24;;;;;;;5.70;0.90;;;;;;;19.42;67.64;101931.97;5108338;28;20505;-57
2022/07/28 08:37:03;;;;;;;1.88;0.63;;;;;;;19.75;70.07;101928.06;5123951;28;20047;-59
2022/07/28 08:39:34;;;;;;;1.05;0.70;;;;;;;20.12;66.09;101930.88;5100745;27;20051;-58
2022/07/28 08:42:48;;;;;;;2.55;0.80;;;;;;;20.52;68.21;101924.28;5109664;27;20047;-57
2022/07/28 08:45:15;;;;;;;2.65;0.85;;;;;;;20.93;66.11;101920.25;5081108;27;20465;-59
2022/07/28 08:47:43;;;;;;;2.77;0.90;;;;;;;21.31;66.39;101928.06;5124878;28;20055;-60
2022/07/28 08:50:30;;;;;;;3.03;0.80;;;;;;;21.68;64.82;101916.28;5106507;28;20047;-60
2022/07/28 08:52:57;;;;;;;1.33;0.77;;;;;;;22.00;64.28;101924.72;5119373;28;20043;-59
2022/07/28 08:55:27;;;;;;;4.00;1.00;;;;;;;22.31;62.15;101923.50;5115306;27;20035;-59
2022/07/28 08:57:58;;;;;;;3.97;0.90;;;;;;;22.65;62.10;101916.47;5117663;28;20079;-58
2022/07/28 09:00:25;;;;;;;1.48;0.80;;;;;;;22.74;59.88;101912.59;5126719;28;20053;-60
2022/07/28 09:02:53;;;;;;;2.83;0.70;;;;;;;23.02;60.21;101922.34;5116689;28;20058;-59
2022/07/28 09:05:21;;;;;;;4.18;0.85;;;;;;;23.26;58.58;101919.09;5118043;28;20990;-59
2022/07/28 09:07:50;;;;;;;2.08;0.90;;;;;;;23.41;59.16;101918.91;5117321;27;20061;-60
2022/07/28 09:10:21;;;;;;;1.45;0.70;;;;;;;23.55;59.45;101922.41;5109638;27;20061;-59
2022/07/28 09:12:47;;;;;;;3.28;0.90;;;;;;;23.52;58.34;101914.78;5113756;28;20157;-60
2022/07/28 09:15:14;;;;;;;1.58;0.60;;;;;;;23.51;58.83;101912.34;5123774;28;20058;-59
2022/07/28 09:17:41;;;;;;;1.90;0.80;;;;;;;23.49;57.45;101917.88;5125445;28;20472;-59
2022/07/28 09:20:09;;;;;;;2.08;0.70;;;;;;;23.59;55.84;101918.28;5108648;28;20047;-59
2022/07/28 09:22:56;;;;;;;2.85;0.90;;;;;;;23.61;55.56;101918.09;5110361;27;20043;-60
2022/07/28 09:25:24;;;;;;;4.07;1.00;;;;;;;23.39;56.90;101909.44;5099270;28;20047;-60
2022/07/28 09:27:50;;;;;;;2.78;0.93;;;;;;;23.57;56.28;101914.19;5111512;27;20057;-60
2022/07/28 09:30:31;;;;;;;4.30;1.10;;;;;;;23.75;57.36;101909.00;5106222;27;20138;-60
2022/07/28 09:33:13;;;;;;;3.13;0.80;;;;;;;24.02;56.74;101909.00;5124052;27;20126;-60
2022/07/28 09:36:00;;;;;;;2.60;0.82;;;;;;;24.27;56.79;101904.59;5116627;27;20050;-60
2022/07/28 09:38:38;;;;;;;;;;;;;;;24.41;55.86;101897.34;5117502;27;20047;-60
2022/07/28 09:41:07;;;;;;;2.42;0.63;;;;;;;24.55;54.69;101889.25;5124843;27;19923;-60
2022/07/28 09:43:38;;;;;;;2.97;0.88;;;;;;;24.78;55.89;101896.78;5121505;27;20057;-59
2022/07/28 09:46:04;;;;;;;4.38;1.10;;;;;;;24.91;55.51;101894.00;5126573;27;20055;-60
2022/07/28 09:48:31;;;;;;;3.53;0.90;;;;;;;24.93;53.90;101885.75;5105764;27;20043;-60
2022/07/28 09:51:12;;;;;;;1.83;0.90;;;;;;;25.04;52.73;101890.41;5114599;27;20099;-58
2022/07/28 09:53:40;;;;;;;3.65;0.80;;;;;;;25.19;54.71;101893.63;5115074;27;20491;-60
2022/07/28 09:56:07;;;;;;;1.83;0.80;;;;;;;25.43;55.91;101888.50;5111560;27;20054;-59
2022/07/28 09:58:34;;;;;;;3.13;0.80;;;;;;;25.58;53.01;101885.47;5121875;27;20418;-62
2022/07/28 10:01:19;;;;;;;3.33;0.93;;;;;;;25.62;50.93;101884.00;5115313;27;20600;-60
2022/07/28 10:03:52;;;;;;;3.55;0.90;;;;;;;25.76;52.48;101880.13;5117102;27;20640;-60
2022/07/28 10:06:33;;;;;;;3.40;1.08;;;;;;;25.90;52.30;101886.19;5115231;27;20693;-60
2022/07/28 10:09:01;;;;;;;5.15;0.90;;;;;;;25.97;52.39;101873.53;5121633;27;20050;-60
2022/07/28 10:11:29;;;;;;;4.15;0.85;;;;;;;26.15;51.87;101879.94;5112883;27;20091;-60
2022/07/28 10:14:04;;;;;;;1.17;0.70;;;;;;;26.30;51.23;101879.56;5109044;27;20054;-60
2022/07/28 10:16:40;;;;;;;2.55;0.98;;;;;;;26.42;50.51;101869.69;5105879;27;20401;-60
2022/07/28 10:19:07;;;;;;;1.27;0.70;;;;;;;26.47;50.05;101867.13;5119174;27;20090;-60
2022/07/28 10:21:43;;;;;;;2.72;0.88;;;;;;;26.43;50.24;101871.34;5115821;27;20058;-60
2022/07/28 10:24:19;;;;;;;2.42;1.10;;;;;;;26.39;54.91;101859.38;5117895;27;20120;-60
2022/07/28 10:26:46;;;;;;;3.90;0.90;;;;;;;26.30;49.97;101861.56;5118491;27;20047;-60
2022/07/28 10:29:19;;;;;;;3.38;0.90;;;;;;;26.41;51.05;101858.09;5123519;27;20055;-62
2022/07/28 10:31:56;;;;;;;2.83;0.73;;;;;;;26.58;51.05;101852.06;5121795;27;20051;-60
2022/07/28 10:34:33;;;;;;;;;;;;;;;26.69;50.04;101848.63;5122322;27;20051;-60
2022/07/28 10:37:07;;;;;;;3.13;0.70;;;;;;;26.73;49.75;101855.22;5131733;27;19927;-60
2022/07/28 10:39:43;;;;;;;5.10;0.90;;;;;;;26.92;48.81;101844.38;5116080;27;20735;-60
2022/07/28 10:42:11;;;;;;;3.60;0.90;;;;;;;27.03;48.77;101840.88;5121822;27;20051;-60
2022/07/28 10:44:38;;;;;;;2.53;0.70;;;;;;;27.27;48.91;101838.25;5118748;27;20046;-60
2022/07/28 10:47:08;;;;;;;6.60;1.00;;;;;;;27.46;48.45;101833.56;5111017;27;20047;-60
2022/07/28 10:49:44;;;;;;;2.30;0.90;;;;;;;27.39;47.92;101828.31;5114308;27;20047;-60
2022/07/28 10:52:16;;;;;;;3.05;0.95;;;;;;;27.52;49.14;101835.31;5114768;27;20043;-61
2022/07/28 10:55:22;;;;;;;2.00;0.70;;;;;;;27.62;48.82;101830.16;5109596;28;20055;-61
2022/07/28 10:58:27;;;;;;;1.02;0.80;;;;;;;27.65;47.26;101826.97;5105347;27;20051;-60
2022/07/28 11:00:54;;;;;;;6.47;1.15;;;;;;;27.64;46.51;101825.34;5111707;27;20052;-60
2022/07/28 11:03:45;;;;;;;1.67;0.70;;;;;;;27.77;46.40;101822.38;5122491;27;20051;-61
2022/07/28 11:06:27;;;;;;;3.17;0.90;;;;;;;27.90;47.38;101817.84;5109059;28;20077;-62
2022/07/28 11:08:55;;;;;;;2.50;0.63;;;;;;;28.02;47.09;101821.31;5111716;27;20047;-60
2022/07/28 11:11:41;;;;;;;2.20;1.08;;;;;;;28.05;46.67;101822.69;5101040;27;20058;-59
2022/07/28 11:14:30;;;;;;;1.42;0.80;;;;;;;28.05;45.74;101817.31;5101427;27;20066;-60
2022/07/28 11:17:00;;;;;;;2.35;0.80;;;;;;;28.06;46.61;101813.56;5129089;27;20046;-60
2022/07/28 11:19:48;;;;;;;2.42;0.80;;;;;;;28.09;45.59;101813.06;5110410;27;20469;-60
2022/07/28 11:22:34;;;;;;;4.82;0.80;;;;;;;28.17;46.10;101810.00;5117169;27;20043;-61
2022/07/28 11:25:04;;;;;;;2.38;0.80;;;;;;;28.13;46.63;101806.16;5121494;27;20043;-60
2022/07/28 11:27:53;;;;;;;1.63;0.88;;;;;;;28.21;46.07;101805.78;5123424;27;20166;-61
2022/07/28 11:30:42;;;;;;;0.80;0.73;;;;;;;28.27;46.13;101807.50;5099569;27;20062;-60
2022/07/28 11:33:09;;;;;;;5.90;0.90;;;;;;;28.39;47.02;101802.88;5126191;27;20570;-60
2022/07/28 11:35:38;;;;;;;2.78;0.77;;;;;;;28.68;44.17;101807.47;5126045;27;20039;-61
2022/07/28 11:38:05;;;;;;;1.83;0.82;;;;;;;28.62;45.04;101803.84;5114600;27;20115;-61
2022/07/28 11:40:53;;;;;;;2.83;0.80;;;;;;;28.81;44.75;101804.41;5122599;27;20788;-60